Time;durP1;ratioP1;P1;durP2;ratioP2;P2;SDS_P1;SDS_P2;PMS_P1;PMS_P2;Temp;Humidity;BMP_temperature;BMP_pressure;BME280_temperature;BME280_humidity;BME280_pressure;Samples;Min_cycle;Max_cycle;Signal;HPM_P1;HPM_P2
2022/11/11 00:02:23;;;;;;;;;10.00;9.00;;;;;11.89;70.00;102174.81;5042022;28;48321;-64
2022/11/11 00:04:49;;;;;;;;;222.00;208.50;;;;;12.00;70.04;102182.56;5039771;28;45539;-63
2022/11/11 00:07:14;;;;;;;;;199.33;177.67;;;;;12.04;70.34;102181.66;5044502;28;45447;-63
2022/11/11 00:09:39;;;;;;;;;128.67;119.33;;;;;12.05;69.90;102178.09;5049918;28;46129;-66
2022/11/11 00:12:05;;;;;;;;;48.25;40.75;;;;;12.08;69.82;102178.91;5052830;28;57541;-60
2022/11/11 00:14:30;;;;;;;;;64.50;51.00;;;;;12.27;69.39;102182.09;5053075;28;45459;-59
2022/11/11 00:25:08;;;;;;;;;12.00;12.00;;;;;12.62;68.27;102163.91;5051195;28;45407;-60
2022/11/11 00:27:34;;;;;;;;;10.00;10.00;;;;;12.67;68.17;102178.75;5044012;28;45431;-50
2022/11/11 00:30:00;;;;;;;;;13.33;11.67;;;;;12.67;67.69;102167.34;5052193;28;45459;-66
2022/11/11 00:32:27;;;;;;;;;9.33;8.33;;;;;12.65;67.65;102163.84;5051414;28;45604;-66
2022/11/11 00:37:39;;;;;;;;;12.00;12.00;;;;;12.56;68.11;102175.47;5048362;28;45410;-65
2022/11/11 00:40:05;;;;;;;;;13.00;11.67;;;;;12.49;67.88;102164.16;5047081;28;45490;-68
2022/11/11 00:42:30;;;;;;;;;13.33;11.67;;;;;12.48;68.26;102175.59;5036868;28;45579;-68
2022/11/11 00:44:56;;;;;;;;;12.00;10.67;;;;;12.40;68.21;102180.13;5041877;28;45376;-67
2022/11/11 00:52:57;;;;;;;;;10.67;10.67;;;;;12.43;68.48;102201.19;5039833;28;45538;-66
2022/11/11 00:55:22;;;;;;;;;10.00;10.00;;;;;12.44;68.09;102202.06;5040380;28;48366;-69
2022/11/11 00:57:48;;;;;;;;;8.33;8.33;;;;;12.47;68.37;102204.66;5066405;28;45427;-68
2022/11/11 01:00:13;;;;;;;;;9.00;9.00;;;;;12.48;67.95;102207.25;5036604;28;45404;-67
2022/11/11 01:02:39;;;;;;;;;13.00;11.33;;;;;12.49;67.80;102213.41;5036884;28;45484;-68
2022/11/11 01:05:04;;;;;;;;;10.67;10.67;;;;;12.47;67.46;102202.03;5036785;28;45441;-67
2022/11/11 01:07:29;;;;;;;;;6.00;6.00;;;;;12.49;67.88;102205.47;5045940;28;45688;-67
2022/11/11 01:09:55;;;;;;;;;10.00;10.00;;;;;12.47;67.74;102196.75;5020297;28;47058;-66
2022/11/11 01:12:20;;;;;;;;;9.67;9.67;;;;;12.44;68.01;102192.41;5038222;28;45415;-66
2022/11/11 01:14:45;;;;;;;;;9.00;8.33;;;;;12.44;67.42;102188.84;5036627;28;45499;-65
2022/11/11 01:17:11;;;;;;;;;11.00;11.00;;;;;12.40;67.18;102188.06;5050373;28;45496;-64
2022/11/11 01:19:36;;;;;;;;;14.33;12.33;;;;;12.41;67.58;102199.47;5030943;28;46687;-67
2022/11/11 01:22:01;;;;;;;;;10.33;10.33;;;;;12.38;67.25;102189.84;5039309;28;46418;-66
2022/11/11 01:24:27;;;;;;;;;9.67;9.67;;;;;12.44;68.22;102194.13;5036492;28;45472;-65
2022/11/11 01:26:52;;;;;;;;;12.00;12.00;;;;;12.47;67.96;102196.75;5047057;28;45609;-66
2022/11/11 01:29:17;;;;;;;;;11.67;10.67;;;;;12.47;67.88;102181.78;5027007;28;45477;-66
2022/11/11 01:31:43;;;;;;;;;11.00;10.00;;;;;12.44;67.15;102181.84;5049413;28;45479;-66
2022/11/11 01:34:08;;;;;;;;;10.33;9.67;;;;;12.48;67.63;102187.91;5047745;28;45478;-66
2022/11/11 01:36:34;;;;;;;;;12.33;12.33;;;;;12.48;67.07;102185.28;5032509;28;45482;-67
2022/11/11 01:38:59;;;;;;;;;10.33;10.33;;;;;12.46;67.91;102181.78;5036285;28;45360;-66
2022/11/11 01:41:33;;;;;;;;;12.33;11.00;;;;;12.49;67.71;102180.00;5053080;28;45538;-65
2022/11/11 01:44:11;;;;;;;;;12.33;11.67;;;;;12.49;67.09;102185.28;5048969;28;45412;-67
2022/11/11 01:46:46;;;;;;;;;16.33;11.33;;;;;12.46;67.54;102182.66;5055693;28;45604;-67
2022/11/11 01:49:39;;;;;;;;;11.33;9.67;;;;;12.51;67.12;102187.88;5042599;28;45466;-67
2022/11/11 01:52:10;;;;;;;;;13.00;12.00;;;;;12.51;67.51;102186.09;5041130;28;45455;-66
2022/11/11 01:54:39;;;;;;;;;11.33;11.33;;;;;12.50;66.97;102196.69;5049648;28;45426;-67
2022/11/11 01:57:14;;;;;;;;;10.33;9.67;;;;;12.49;67.35;102205.47;5056572;28;45444;-69
2022/11/11 01:59:45;;;;;;;;;11.00;11.00;;;;;12.47;66.97;102209.94;5036371;28;45557;-65
2022/11/11 02:02:20;;;;;;;;;9.67;9.67;;;;;12.43;67.31;102208.25;5051467;28;45542;-66
2022/11/11 02:07:33;;;;;;;;;58.75;48.50;;;;;12.47;67.16;102202.88;5054545;28;45459;-64
2022/11/11 02:10:01;;;;;;;;;23.33;23.33;;;;;12.50;66.98;102200.19;5042633;28;46226;-65
2022/11/11 02:15:11;;;;;;;;;13.33;13.33;;;;;12.59;67.13;102207.94;5039104;28;45404;-66
2022/11/11 02:17:38;;;;;;;;;10.33;10.33;;;;;12.60;67.03;102204.41;5047212;28;45472;-67
2022/11/11 02:20:04;;;;;;;;;12.33;10.00;;;;;12.63;66.50;102197.31;5041967;28;45450;-67
2022/11/11 02:22:36;;;;;;;;;11.67;10.33;;;;;12.62;67.08;102196.44;5025027;28;45660;-69
2022/11/11 02:25:05;;;;;;;;;11.00;11.00;;;;;12.63;66.70;102194.69;5042439;28;45519;-65
2022/11/11 02:27:35;;;;;;;;;9.33;8.00;;;;;12.60;66.18;102199.13;5047785;28;45552;-66
2022/11/11 02:30:03;;;;;;;;;11.67;10.00;;;;;12.58;66.40;102198.28;5048010;28;46302;-68
2022/11/11 02:32:28;;;;;;;;;11.67;11.67;;;;;12.56;66.93;102197.44;5049743;28;45488;-67
2022/11/11 02:34:54;;;;;;;;;10.67;10.67;;;;;12.53;66.80;102196.63;5046165;28;45567;-67
2022/11/11 02:37:22;;;;;;;;;13.67;13.33;;;;;12.47;66.79;102197.63;5035696;28;45415;-64
2022/11/11 02:39:51;;;;;;;;;11.67;11.67;;;;;12.45;66.53;102195.91;5022101;28;46326;-65
2022/11/11 02:42:19;;;;;;;;;11.67;11.00;;;;;12.45;66.74;102191.47;5039155;28;45436;-65
2022/11/11 02:44:45;;;;;;;;;11.00;9.00;;;;;12.48;67.08;102188.78;5051257;28;45591;-66
2022/11/11 02:47:10;;;;;;;;;12.00;11.00;;;;;12.50;66.62;102196.69;5051789;28;45490;-66
2022/11/11 02:49:35;;;;;;;;;14.67;12.00;;;;;12.48;66.57;102196.69;5037431;28;45512;-68
2022/11/11 02:52:01;;;;;;;;;10.33;9.33;;;;;12.48;66.94;102193.19;5050724;28;45513;-65
2022/11/11 02:54:26;;;;;;;;;15.00;14.67;;;;;12.48;67.23;102185.28;5064869;28;45672;-69
2022/11/11 02:57:07;;;;;;;;;9.33;9.33;;;;;12.47;66.82;102187.06;5054654;28;45394;-66
2022/11/11 02:59:35;;;;;;;;;10.33;10.33;;;;;12.50;66.94;102187.00;5046407;28;45640;-66
2022/11/11 03:02:00;;;;;;;;;10.67;9.00;;;;;12.49;66.87;102190.56;5047525;28;45705;-68
2022/11/11 03:04:26;;;;;;;;;14.00;14.00;;;;;12.49;66.87;102200.22;5045712;28;59317;-68
2022/11/11 03:06:51;;;;;;;;;12.00;11.67;;;;;12.50;66.58;102196.69;5055601;27;45493;-67
2022/11/11 03:09:16;;;;;;;;;17.00;14.67;;;;;12.53;67.13;102192.22;5041805;28;45918;-66
2022/11/11 03:11:42;;;;;;;;;13.00;10.00;;;;;12.50;67.20;102181.72;5053068;28;45399;-65
2022/11/11 03:14:08;;;;;;;;;60.00;50.00;;;;;12.50;67.07;102184.34;5037811;28;45502;-65
2022/11/11 03:19:18;;;;;;;;;11.67;11.67;;;;;12.45;66.53;102166.88;5058708;28;45435;-68
2022/11/11 03:21:43;;;;;;;;;12.33;12.00;;;;;12.54;67.34;102183.38;5041326;28;45443;-67
2022/11/11 03:24:09;;;;;;;;;13.33;13.00;;;;;12.56;67.15;102173.69;5052150;28;45482;-68
2022/11/11 03:26:35;;;;;;;;;12.33;10.67;;;;;12.57;66.88;102177.19;5035518;28;45412;-69
2022/11/11 03:29:00;;;;;;;;;11.33;11.33;;;;;12.58;67.02;102186.88;5034841;28;45982;-68
2022/11/11 03:31:25;;;;;;;;;11.00;11.00;;;;;12.54;66.74;102186.03;5033343;28;46009;-66
2022/11/11 03:33:51;;;;;;;;;12.33;10.33;;;;;12.55;66.57;102186.94;5036756;28;49467;-67
2022/11/11 03:36:16;;;;;;;;;11.33;10.00;;;;;12.47;66.07;102184.41;5034562;28;46953;-69
2022/11/11 03:38:41;;;;;;;;;12.00;10.67;;;;;12.45;66.21;102193.25;5048222;28;48149;-67
2022/11/11 03:41:07;;;;;;;;;10.00;9.00;;;;;12.28;66.08;102167.19;5049989;28;45536;-68
2022/11/11 03:43:34;;;;;;;;;12.33;11.00;;;;;12.39;66.23;102181.03;5053859;28;45452;-67
2022/11/11 03:46:01;;;;;;;;;10.00;8.67;;;;;12.38;65.80;102184.56;5061779;27;45478;-68
2022/11/11 03:48:29;;;;;;;;;11.33;10.00;;;;;12.37;66.18;102182.84;5038851;28;45826;-68
2022/11/11 03:50:54;;;;;;;;;10.67;9.33;;;;;12.35;66.01;102188.13;5068535;27;45305;-68
2022/11/11 03:53:20;;;;;;;;;9.33;8.00;;;;;12.32;66.26;102189.94;5037960;28;45326;-66
2022/11/11 03:55:46;;;;;;;;;9.00;8.67;;;;;12.29;65.88;102197.94;5038062;28;45379;-68
2022/11/11 03:58:12;;;;;;;;;9.00;8.00;;;;;12.30;65.87;102194.38;5041408;28;45932;-67
2022/11/11 04:00:37;;;;;;;;;12.00;10.00;;;;;12.30;66.50;102191.75;5029433;28;45852;-67
2022/11/11 04:11:26;;;;;;;;;8.33;8.33;;;;;12.14;67.05;102205.19;5027251;28;45577;-68
2022/11/11 04:16:39;;;;;;;;;9.33;9.00;;;;;12.15;66.84;102211.34;5027592;28;45437;-68
2022/11/11 04:21:52;;;;;;;;;12.00;12.00;;;;;12.13;66.75;102214.00;5030395;28;45467;-69
2022/11/11 04:27:12;;;;;;;;;12.00;11.67;;;;;11.96;66.53;102202.00;5030791;28;45465;-67
2022/11/11 04:29:38;;;;;;;;;10.33;9.00;;;;;11.90;67.07;102201.19;5031764;28;46112;-68
2022/11/11 04:34:54;;;;;;;;;15.00;11.33;;;;;11.98;67.73;102195.75;5024419;28;45466;-69
2022/11/11 04:37:21;;;;;;;;;12.00;12.00;;;;;12.04;67.38;102200.09;5028248;28;45613;-68
2022/11/11 04:42:33;;;;;;;;;13.67;13.67;;;;;12.05;67.58;102200.06;5036614;28;45403;-68
2022/11/11 04:47:52;;;;;;;;;14.00;13.67;;;;;12.11;67.76;102197.31;5033310;28;45463;-67
2022/11/11 04:50:17;;;;;;;;;14.33;10.33;;;;;12.14;67.38;102207.84;5034400;28;45405;-68
2022/11/11 04:52:43;;;;;;;;;11.33;10.33;;;;;12.16;67.83;102211.31;5017708;28;45465;-69
2022/11/11 04:57:52;;;;;;;;;10.33;10.33;;;;;12.16;67.68;102216.56;5030212;28;45391;-68
2022/11/11 05:00:18;;;;;;;;;11.67;11.00;;;;;12.15;67.61;102201.66;5047900;28;45560;-68
2022/11/11 05:08:54;;;;;;;;;12.67;11.33;;;;;12.10;67.55;102198.22;5053505;28;45329;-68
2022/11/11 05:10:59;;;;;;;;;11.33;9.33;;;;;12.12;67.08;102190.31;5052899;28;45426;-69
2022/11/11 05:21:54;;;;;;;;;11.33;11.33;;;;;12.19;66.75;102196.34;5049302;28;45373;-69
2022/11/11 05:27:03;;;;;;;;;17.00;14.67;;;;;12.20;67.13;102190.16;5040674;28;45534;-68
2022/11/11 05:29:28;;;;;;;;;12.33;11.00;;;;;12.21;66.82;102192.78;5040168;28;46721;-68
2022/11/11 05:31:54;;;;;;;;;10.33;10.33;;;;;12.24;66.90;102194.50;5024748;28;46325;-69
2022/11/11 05:34:19;;;;;;;;;13.67;13.00;;;;;12.25;67.60;102196.22;5056177;28;45373;-68
2022/11/11 05:36:44;;;;;;;;;10.33;10.00;;;;;12.26;67.33;102200.63;5047702;28;50000;-69
2022/11/11 05:39:10;;;;;;;;;11.00;11.00;;;;;12.27;66.41;102200.56;5055688;28;51437;-67
2022/11/11 05:41:35;;;;;;;;;11.00;11.00;;;;;12.23;66.95;102190.13;5055747;28;49385;-69
2022/11/11 05:44:00;;;;;;;;;13.67;12.00;;;;;12.22;66.90;102202.41;5056899;28;45466;-69
2022/11/11 05:46:25;;;;;;;;;12.00;12.00;;;;;12.19;66.29;102196.34;5054955;28;46178;-68
2022/11/11 05:51:46;;;;;;;;;10.00;10.00;;;;;12.14;66.09;102202.56;5047601;28;45474;-68
2022/11/11 05:54:13;;;;;;;;;11.00;9.00;;;;;12.12;66.59;102199.06;5056803;28;45527;-68
2022/11/11 05:56:39;;;;;;;;;11.33;9.67;;;;;12.18;66.26;102197.25;5055897;28;45411;-69
2022/11/11 05:59:05;;;;;;;;;12.33;12.00;;;;;12.19;66.04;102196.34;5054499;28;45434;-69
2022/11/11 06:01:31;;;;;;;;;11.00;11.00;;;;;12.19;65.91;102197.19;5055656;28;46331;-67
2022/11/11 06:03:57;;;;;;;;;5.67;5.33;;;;;12.17;66.38;102199.00;5054648;28;46138;-68
2022/11/11 06:06:22;;;;;;;;;8.33;7.67;;;;;12.13;65.99;102211.34;5056655;28;45383;-68
2022/11/11 06:08:47;;;;;;;;;9.33;8.33;;;;;12.08;66.58;102197.38;5056362;28;45450;-69
2022/11/11 06:11:13;;;;;;;;;7.00;6.33;;;;;12.08;66.47;102205.28;5036196;28;46373;-68
2022/11/11 06:13:38;;;;;;;;;10.67;9.33;;;;;12.06;65.73;102207.09;5055508;28;45370;-67
2022/11/11 06:16:04;;;;;;;;;9.33;9.33;;;;;12.08;66.27;102215.81;5055468;28;45873;-68
2022/11/11 06:18:29;;;;;;;;;9.33;9.00;;;;;12.04;66.64;102206.25;5056637;28;45429;-68
2022/11/11 06:20:56;;;;;;;;;9.00;7.00;;;;;12.03;66.07;102209.75;5048215;28;45974;-67
2022/11/11 06:23:21;;;;;;;;;8.00;8.00;;;;;12.03;66.03;102209.75;5037485;28;45378;-67
2022/11/11 06:28:31;;;;;;;;;10.00;10.00;;;;;12.02;66.18;102230.88;5046102;28;45423;-67
2022/11/11 06:30:56;;;;;;;;;9.67;9.00;;;;;12.03;66.61;102225.56;5039682;28;45502;-69
2022/11/11 06:33:22;;;;;;;;;6.00;6.00;;;;;12.04;66.70;102223.84;5037562;28;45593;-67
2022/11/11 06:35:47;;;;;;;;;8.00;8.00;;;;;12.05;66.87;102226.44;5038410;28;45293;-68
2022/11/11 06:38:13;;;;;;;;;7.00;7.00;;;;;12.07;66.68;102224.66;5037895;28;45583;-67
2022/11/11 06:40:38;;;;;;;;;9.00;7.67;;;;;12.05;66.72;102229.06;5047187;28;45776;-67
2022/11/11 06:43:03;;;;;;;;;6.33;6.33;;;;;12.01;66.41;102229.13;5048683;28;45439;-67
2022/11/11 06:45:32;;;;;;;;;6.33;6.33;;;;;11.98;66.83;102227.41;5055973;28;45313;-67
2022/11/11 06:47:57;;;;;;;;;8.33;7.33;;;;;11.99;66.47;102237.09;5051356;28;45620;-67
2022/11/11 06:50:22;;;;;;;;;6.33;6.33;;;;;11.98;66.96;102231.81;5052794;28;45467;-67
2022/11/11 06:52:48;;;;;;;;;7.67;7.67;;;;;11.98;67.11;102237.94;5055162;28;45524;-67
2022/11/11 06:55:13;;;;;;;;;9.33;8.00;;;;;12.01;66.43;102242.31;5046283;28;45760;-67
2022/11/11 06:57:38;;;;;;;;;7.67;7.67;;;;;12.02;66.60;102247.56;5055974;28;45564;-67
2022/11/11 07:00:05;;;;;;;;;7.33;7.33;;;;;12.00;66.36;102246.72;5054158;28;54001;-67
2022/11/11 07:02:32;;;;;;;;;8.50;7.00;;;;;11.93;66.93;102248.59;5053392;28;45548;-67
2022/11/11 07:04:57;;;;;;;;;8.67;7.67;;;;;11.91;66.74;102252.13;5055852;28;45418;-67
2022/11/11 07:07:23;;;;;;;;;9.33;9.33;;;;;11.91;67.55;102253.00;5053790;28;45356;-68
2022/11/11 07:09:48;;;;;;;;;6.67;6.00;;;;;11.90;67.58;102250.38;5050301;28;45454;-67
2022/11/11 07:12:14;;;;;;;;;9.67;9.67;;;;;11.92;67.64;102257.38;5040564;28;45495;-68
2022/11/11 07:14:39;;;;;;;;;7.67;7.67;;;;;11.95;67.69;102248.56;5054721;28;45368;-67
2022/11/11 07:17:05;;;;;;;;;9.00;8.67;;;;;11.99;67.16;102252.91;5055720;28;45602;-67
2022/11/11 07:19:30;;;;;;;;;6.00;6.00;;;;;11.97;66.69;102252.03;5053060;28;46040;-68
2022/11/11 07:21:56;;;;;;;;;6.00;6.00;;;;;11.98;67.93;102243.22;5046337;28;45522;-68
2022/11/11 07:24:21;;;;;;;;;9.00;9.00;;;;;12.02;67.67;102237.03;5052189;28;45423;-68
2022/11/11 07:26:46;;;;;;;;;9.67;8.00;;;;;12.04;67.64;102229.97;5054664;28;45377;-67
2022/11/11 07:29:14;;;;;;;;;11.33;11.33;;;;;12.03;66.85;102236.13;5054578;28;45478;-67
2022/11/11 07:31:40;;;;;;;;;9.00;8.00;;;;;12.05;67.24;102236.97;5038957;28;45387;-67
2022/11/11 07:34:06;;;;;;;;;9.00;8.33;;;;;12.05;67.64;102242.25;5045341;28;45549;-67
2022/11/11 07:36:31;;;;;;;;;8.33;7.33;;;;;12.01;66.66;102237.94;5054197;28;45527;-68
2022/11/11 07:38:56;;;;;;;;;8.33;8.00;;;;;12.00;67.83;102240.56;5039065;28;45682;-68
2022/11/11 07:41:22;;;;;;;;;8.33;8.33;;;;;11.96;67.44;102237.13;5049568;28;45588;-67
2022/11/11 07:43:47;;;;;;;;;12.00;11.33;;;;;11.99;67.63;102238.84;5053954;28;45535;-68
2022/11/11 07:46:13;;;;;;;;;9.33;9.33;;;;;12.01;67.25;102231.75;5055342;28;45335;-68
2022/11/11 07:48:38;;;;;;;;;11.00;10.00;;;;;12.02;67.71;102233.53;5051878;28;46282;-68
2022/11/11 07:51:03;;;;;;;;;10.00;9.00;;;;;12.04;67.90;102232.59;5053493;28;45427;-67
2022/11/11 07:53:29;;;;;;;;;9.67;9.67;;;;;12.03;66.99;102228.22;5052266;28;45437;-68
2022/11/11 07:55:54;;;;;;;;;10.00;10.00;;;;;12.06;67.49;102224.66;5054842;28;49508;-67
2022/11/11 07:58:20;;;;;;;;;8.00;8.00;;;;;12.08;67.75;102236.06;5052653;28;45407;-67
2022/11/11 08:00:45;;;;;;;;;9.67;9.67;;;;;12.06;67.27;102237.84;5045594;28;45494;-68
2022/11/11 08:03:11;;;;;;;;;10.67;9.67;;;;;12.07;68.29;102234.34;5046212;28;45511;-68
2022/11/11 08:05:36;;;;;;;;;10.00;9.00;;;;;12.06;67.92;102229.94;5052733;28;45422;-68
2022/11/11 08:08:06;;;;;;;;;7.67;7.67;;;;;12.08;67.94;102242.19;5052234;28;49356;-68
2022/11/11 08:10:32;;;;;;;;;10.33;10.33;;;;;12.09;67.28;102241.31;5035315;28;45359;-67
2022/11/11 08:15:41;;;;;;;;;10.00;10.00;;;;;12.12;67.74;102240.41;5054667;28;45426;-68
2022/11/11 08:18:07;;;;;;;;;10.00;10.00;;;;;12.10;66.98;102240.41;5051747;28;45388;-69
2022/11/11 08:20:33;;;;;;;;;9.00;8.00;;;;;12.09;67.12;102235.16;5029371;28;45546;-68
2022/11/11 08:22:58;;;;;;;;;10.33;9.33;;;;;12.12;67.93;102243.91;5054713;28;45439;-67
2022/11/11 08:25:24;;;;;;;;;10.00;10.00;;;;;12.12;67.80;102238.63;5054271;28;45534;-70
2022/11/11 08:28:00;;;;;;;;;12.33;9.67;;;;;12.14;67.62;102243.88;5049767;28;46116;-68
2022/11/11 08:30:27;;;;;;;;;8.00;8.00;;;;;12.10;67.13;102239.56;5047009;28;45493;-68
2022/11/11 08:33:04;;;;;;;;;8.00;8.00;;;;;12.07;67.45;102232.56;5040944;28;45534;-67
2022/11/11 08:35:30;;;;;;;;;7.33;7.33;;;;;12.08;67.54;102250.13;5040514;28;45503;-68
2022/11/11 08:38:00;;;;;;;;;9.67;9.00;;;;;12.04;67.54;102250.22;5046489;28;45593;-67
2022/11/11 08:40:26;;;;;;;;;11.33;11.00;;;;;12.04;67.44;102242.28;5055455;28;45484;-67
2022/11/11 08:42:56;;;;;;;;;10.00;10.00;;;;;12.03;67.22;102246.66;5057938;28;45429;-68
2022/11/11 08:45:21;;;;;;;;;12.00;10.00;;;;;12.04;67.75;102253.72;5054816;28;45597;-68
2022/11/11 08:47:47;;;;;;;;;9.67;9.67;;;;;12.05;67.58;102255.44;5056470;28;45435;-68
2022/11/11 08:50:12;;;;;;;;;12.33;11.00;;;;;12.05;68.12;102247.53;5055661;28;55792;-67
2022/11/11 08:52:38;;;;;;;;;16.33;13.67;;;;;12.08;67.12;102251.88;5036912;28;45439;-68
2022/11/11 08:55:04;;;;;;;;;11.00;11.00;;;;;12.06;67.37;102266.84;5044745;28;45567;-67
2022/11/11 08:57:29;;;;;;;;;11.33;11.33;;;;;12.06;67.39;102273.03;5048011;28;46520;-67
2022/11/11 08:59:54;;;;;;;;;9.00;9.00;;;;;12.04;66.99;102272.16;5037343;28;45388;-67
2022/11/11 09:02:20;;;;;;;;;14.67;12.00;;;;;12.01;68.12;102272.22;5047182;28;45383;-68
2022/11/11 09:04:46;;;;;;;;;12.33;11.00;;;;;12.04;68.02;102276.56;5027500;28;45718;-68
2022/11/11 09:07:11;;;;;;;;;12.00;12.00;;;;;12.03;67.55;102274.81;5047088;28;46040;-67
2022/11/11 09:09:36;;;;;;;;;11.67;11.67;;;;;12.06;67.47;102278.28;5044765;28;45522;-68
2022/11/11 09:12:02;;;;;;;;;10.00;10.00;;;;;12.09;68.19;102278.25;5037868;28;50748;-68
2022/11/11 09:14:27;;;;;;;;;9.67;9.67;;;;;12.08;68.12;102273.84;5038291;28;45616;-68
2022/11/11 09:16:53;;;;;;;;;11.33;11.33;;;;;12.07;68.29;102268.63;5037690;28;45520;-67
2022/11/11 09:19:18;;;;;;;;;9.67;8.00;;;;;12.02;67.64;102268.66;5039086;28;52647;-68
2022/11/11 09:21:43;;;;;;;;;10.00;9.67;;;;;12.00;67.86;102273.09;5037443;28;45455;-67
2022/11/11 09:24:09;;;;;;;;;8.67;8.67;;;;;12.00;67.42;102274.84;5040569;28;45637;-68
2022/11/11 09:26:34;;;;;;;;;9.33;9.33;;;;;11.98;67.10;102280.13;5036739;28;45479;-67
2022/11/11 09:29:00;;;;;;;;;8.33;8.33;;;;;11.97;67.67;102274.91;5041378;28;45581;-68
2022/11/11 09:31:25;;;;;;;;;9.33;9.33;;;;;11.98;67.94;102281.91;5036926;28;45471;-68
2022/11/11 09:33:50;;;;;;;;;9.00;8.00;;;;;11.97;68.25;102282.81;5043984;28;45601;-68
2022/11/11 09:36:17;;;;;;;;;11.33;10.00;;;;;12.00;67.84;102280.13;5037444;28;46382;-67
2022/11/11 09:38:42;;;;;;;;;6.33;6.33;;;;;11.99;67.98;102281.91;5036489;28;45562;-69
2022/11/11 09:41:21;;;;;;;;;10.00;9.00;;;;;12.00;67.49;102280.13;5048120;28;45507;-68
2022/11/11 09:43:56;;;;;;;;;7.33;7.33;;;;;12.00;67.24;102288.91;5054993;28;45402;-68
2022/11/11 09:46:34;;;;;;;;;8.33;7.00;;;;;12.03;67.74;102285.38;5048637;28;45991;-68
2022/11/11 09:49:25;;;;;;;;;11.00;10.00;;;;;12.05;67.52;102275.66;5055204;28;45547;-67
2022/11/11 09:52:16;;;;;;;;;8.00;8.00;;;;;12.09;66.59;102283.53;5056700;28;45358;-67
2022/11/11 09:54:49;;;;;;;;;12.33;11.00;;;;;12.08;67.10;102283.53;5055589;28;45412;-67
2022/11/11 09:57:44;;;;;;;;;10.00;8.67;;;;;12.12;67.74;102291.38;5054565;28;45462;-67
2022/11/11 10:00:21;;;;;;;;;11.00;11.00;;;;;12.15;67.18;102293.09;5054871;28;45466;-67
2022/11/11 10:02:56;;;;;;;;;10.33;9.33;;;;;12.18;67.61;102297.47;5038705;28;45623;-67
2022/11/11 10:05:26;;;;;;;;;9.00;9.00;;;;;12.23;66.96;102293.00;5048335;28;45482;-67
2022/11/11 10:08:04;;;;;;;;;10.00;10.00;;;;;12.27;67.20;102298.19;5052153;28;46288;-68
2022/11/11 10:10:44;;;;;;;;;7.67;7.67;;;;;12.24;66.54;102302.66;5050983;28;45409;-67
2022/11/11 10:13:14;;;;;;;;;9.67;8.00;;;;;12.25;66.93;102296.47;5053628;28;45395;-68
2022/11/11 10:15:49;;;;;;;;;10.67;9.67;;;;;12.21;66.86;102300.06;5053843;28;45579;-67
2022/11/11 10:18:41;;;;;;;;;10.00;10.00;;;;;12.20;66.54;102298.28;5056217;28;45498;-68
2022/11/11 10:21:16;;;;;;;;;9.67;9.00;;;;;12.23;66.47;102293.00;5046937;28;45400;-68
2022/11/11 10:23:47;;;;;;;;;8.00;8.00;;;;;12.23;67.15;102293.88;5036187;28;45426;-67
2022/11/11 10:26:22;;;;;;;;;11.00;9.33;;;;;12.27;66.68;102297.31;5037457;28;45597;-68
2022/11/11 10:28:50;;;;;;;;;10.33;10.33;;;;;12.26;66.57;102293.81;5036240;28;46263;-67
2022/11/11 10:31:19;;;;;;;;;8.00;7.67;;;;;12.27;66.97;102294.69;5035098;28;45378;-68
2022/11/11 10:34:07;;;;;;;;;11.67;11.67;;;;;12.22;66.62;102288.59;5020596;28;45461;-66
2022/11/11 10:36:37;;;;;;;;;8.00;8.00;;;;;12.21;66.41;102294.78;5038740;28;45416;-67
2022/11/11 10:39:04;;;;;;;;;10.67;10.67;;;;;12.23;67.11;102293.88;5039142;28;45628;-68
2022/11/11 10:41:59;;;;;;;;;10.00;10.00;;;;;12.24;66.11;102284.19;5055378;28;45426;-67
2022/11/11 10:44:30;;;;;;;;;11.33;11.00;;;;;12.26;66.94;102288.53;5036592;28;45516;-68
2022/11/11 10:47:04;;;;;;;;;13.00;13.00;;;;;12.31;67.15;102284.06;5048189;28;45485;-67
2022/11/11 10:49:41;;;;;;;;;12.67;12.67;;;;;12.35;67.12;102288.38;5036137;28;45466;-67
2022/11/11 10:52:17;;;;;;;;;13.33;12.00;;;;;12.34;66.27;102283.16;5035705;28;45424;-68
2022/11/11 10:54:55;;;;;;;;;10.67;9.67;;;;;12.37;66.09;102294.50;5036311;28;45456;-68
2022/11/11 10:57:21;;;;;;;;;12.00;11.67;;;;;12.38;66.54;102295.38;5036696;28;45404;-68
2022/11/11 10:59:55;;;;;;;;;12.33;12.33;;;;;12.37;66.21;102291.00;5048133;28;45418;-68
2022/11/11 11:02:29;;;;;;;;;9.00;9.00;;;;;12.38;66.39;102287.47;5037873;28;45569;-68
2022/11/11 11:05:12;;;;;;;;;11.67;11.67;;;;;12.42;66.63;102290.94;5039845;28;45518;-67
2022/11/11 11:07:44;;;;;;;;;10.00;10.00;;;;;12.42;65.92;102286.53;5035739;28;45545;-67
2022/11/11 11:10:17;;;;;;;;;9.67;9.67;;;;;12.47;65.78;102281.19;5034199;28;45471;-68
2022/11/11 11:12:56;;;;;;;;;11.00;11.00;;;;;12.51;66.15;102275.81;5041678;28;45465;-69
2022/11/11 11:15:25;;;;;;;;;12.00;10.67;;;;;12.55;66.08;102279.28;5040798;28;45399;-66
2022/11/11 11:18:03;;;;;;;;;12.00;12.00;;;;;12.58;65.50;102282.75;5046885;28;45623;-67
2022/11/11 11:20:28;;;;;;;;;17.00;15.00;;;;;12.56;65.33;102283.66;5042263;28;45431;-66
2022/11/11 11:22:58;;;;;;;;;18.00;15.00;;;;;12.55;65.59;102272.25;5034725;28;56561;-67
2022/11/11 11:25:25;;;;;;;;;13.00;13.00;;;;;12.57;65.65;102274.84;5044101;28;45503;-66
2022/11/11 11:27:52;;;;;;;;;15.00;13.33;;;;;12.58;65.44;102269.56;5036195;28;45436;-67
2022/11/11 11:30:23;;;;;;;;;12.33;11.33;;;;;12.61;65.49;102279.19;5035196;28;45404;-68
2022/11/11 11:32:57;;;;;;;;;16.33;15.33;;;;;12.58;65.86;102266.91;5044880;28;45441;-67
2022/11/11 11:35:35;;;;;;;;;12.00;12.00;;;;;12.63;65.44;102261.56;5035569;28;45538;-67
2022/11/11 11:38:01;;;;;;;;;17.00;16.00;;;;;12.64;65.49;102263.28;5043180;28;45569;-68
2022/11/11 11:40:27;;;;;;;;;14.67;14.67;;;;;12.68;65.86;102258.81;5036306;28;45714;-66
2022/11/11 11:42:52;;;;;;;;;13.67;13.67;;;;;12.71;65.29;102256.16;5037456;28;45467;-68
2022/11/11 11:45:32;;;;;;;;;12.00;12.00;;;;;12.71;65.42;102261.44;5035042;28;45348;-67
2022/11/11 11:48:12;;;;;;;;;17.00;15.33;;;;;12.70;65.33;102254.38;5042273;28;45640;-68
2022/11/11 11:50:56;;;;;;;;;20.67;17.33;;;;;12.72;65.20;102249.97;5047101;28;45565;-67
2022/11/11 11:53:42;;;;;;;;;15.00;15.00;;;;;12.73;65.59;102242.00;5051780;28;45414;-68
2022/11/11 11:56:26;;;;;;;;;15.33;15.33;;;;;12.76;65.15;102234.06;5034187;28;45597;-67
2022/11/11 11:58:57;;;;;;;;;16.33;16.33;;;;;12.79;65.19;102238.41;5046361;28;45637;-67
2022/11/11 12:01:49;;;;;;;;;19.33;18.00;;;;;12.81;65.08;102241.88;5040342;28;45863;-68
2022/11/11 12:04:33;;;;;;;;;17.33;16.33;;;;;12.85;65.18;102240.06;5036955;28;45403;-68
2022/11/11 12:07:11;;;;;;;;;16.00;16.00;;;;;12.90;65.25;102232.94;5037799;28;45548;-68
2022/11/11 12:09:42;;;;;;;;;15.33;15.33;;;;;12.89;64.88;102239.94;5037821;28;45320;-67
2022/11/11 12:12:23;;;;;;;;;17.67;17.33;;;;;12.85;64.59;102238.28;5037883;28;45438;-68
2022/11/11 12:14:55;;;;;;;;;14.00;13.67;;;;;12.88;65.18;102234.72;5038148;28;45576;-68
2022/11/11 12:17:35;;;;;;;;;14.67;14.67;;;;;12.91;65.13;102243.44;5037965;28;45376;-68
2022/11/11 12:20:00;;;;;;;;;15.67;13.67;;;;;12.93;64.82;102236.38;5038170;28;45523;-68
2022/11/11 12:22:49;;;;;;;;;17.00;17.00;;;;;13.00;65.18;102229.19;5037408;28;45576;-69
2022/11/11 12:25:33;;;;;;;;;15.00;14.33;;;;;12.99;64.20;102224.81;5038041;28;45444;-68
2022/11/11 12:28:27;;;;;;;;;14.00;14.00;;;;;13.05;64.58;102219.41;5040102;28;45567;-68
2022/11/11 12:31:23;;;;;;;;;15.33;15.33;;;;;13.11;64.81;102218.41;5037154;28;45358;-67
2022/11/11 12:34:22;;;;;;;;;13.67;12.67;;;;;13.09;64.29;102218.47;5037755;28;45995;-68
2022/11/11 12:37:15;;;;;;;;;11.33;11.00;;;;;13.13;64.78;102208.69;5037620;28;45636;-68
2022/11/11 12:39:58;;;;;;;;;13.33;13.00;;;;;13.23;64.93;102207.59;5037765;28;45562;-67
2022/11/11 12:42:30;;;;;;;;;14.33;13.67;;;;;13.32;64.76;102210.06;5044783;28;45535;-67